createdAt,value
2022-11-12T00:00:29.601Z,98113.28
2022-11-12T00:03:16.642Z,98107.84
2022-11-12T00:06:04.665Z,98109.19
2022-11-12T00:08:51.469Z,98117.84
2022-11-12T00:11:38.343Z,98118.50
2022-11-12T00:14:25.124Z,98112.94
2022-11-12T00:17:11.989Z,98114.88
2022-11-12T00:19:58.987Z,98114.72
2022-11-12T00:22:47.088Z,98108.31
2022-11-12T00:25:33.784Z,98113.56
2022-11-12T00:33:57.795Z,98099.44
2022-11-12T00:36:44.683Z,98103.06
2022-11-12T00:39:32.874Z,98105.06
2022-11-12T00:42:19.811Z,98111.25
2022-11-12T00:45:07.935Z,98112.94
2022-11-12T00:47:57.528Z,98109.81
2022-11-12T00:50:44.186Z,98109.16
2022-11-12T00:53:31.283Z,98109.00
2022-11-12T00:56:19.478Z,98112.59
2022-11-12T00:59:06.334Z,98110.47
2022-11-12T01:01:53.001Z,98111.25
2022-11-12T01:04:39.983Z,98111.25
2022-11-12T01:07:26.799Z,98113.09
2022-11-12T01:10:13.826Z,98110.47
2022-11-12T01:13:02.158Z,98109.31
2022-11-12T01:15:48.703Z,98107.81
2022-11-12T01:18:35.610Z,98110.78
2022-11-12T01:21:23.424Z,98107.16
2022-11-12T01:24:10.879Z,98100.91
2022-11-12T01:26:57.631Z,98104.84
2022-11-12T01:29:45.745Z,98091.72
2022-11-12T01:32:36.889Z,98089.59
2022-11-12T01:35:23.584Z,98089.09
2022-11-12T01:38:10.552Z,98088.78
2022-11-12T01:40:57.466Z,98086.31
2022-11-12T01:43:44.061Z,98088.59
2022-11-12T01:46:32.402Z,98080.25
2022-11-12T01:49:25.319Z,98081.03
2022-11-12T01:52:18.586Z,98076.63
2022-11-12T01:55:10.520Z,98072.69
2022-11-12T01:58:14.646Z,98069.38
2022-11-12T02:01:03.448Z,98054.47
2022-11-12T02:03:52.016Z,98056.25
2022-11-12T02:06:40.878Z,98046.91
2022-11-12T02:09:27.670Z,98046.06
2022-11-12T02:12:34.307Z,98049.63
2022-11-12T02:15:20.453Z,98050.44
2022-11-12T02:18:07.426Z,98047.50
2022-11-12T02:20:59.053Z,98043.59
2022-11-12T02:23:46.896Z,98042.41
2022-11-12T02:26:38.028Z,98046.84
2022-11-12T02:29:24.729Z,98038.97
2022-11-12T02:32:11.643Z,98040.28
2022-11-12T02:34:58.632Z,98032.09
2022-11-12T02:37:45.206Z,98030.13
2022-11-12T02:40:33.243Z,98037.47
2022-11-12T02:43:21.499Z,98035.00
2022-11-12T02:46:08.868Z,98039.28
2022-11-12T02:48:55.575Z,98041.72
2022-11-12T02:51:42.442Z,98031.91
2022-11-12T02:54:29.210Z,98034.19
2022-11-12T02:57:17.179Z,98028.16
2022-11-12T03:00:04.902Z,98031.25
2022-11-12T03:02:58.985Z,98035.34
2022-11-12T03:05:47.137Z,98043.19
2022-11-12T03:08:33.859Z,98031.06
2022-11-12T03:11:20.515Z,98042.56
2022-11-12T03:14:08.501Z,98036.66
2022-11-12T03:16:55.059Z,98041.75
2022-11-12T03:19:41.840Z,98034.38
2022-11-12T03:22:28.508Z,98038.34
2022-11-12T03:25:15.245Z,98041.28
2022-11-12T03:28:04.963Z,98047.69
2022-11-12T03:30:53.034Z,98048.66
2022-11-12T03:33:40.417Z,98044.50
2022-11-12T03:36:27.096Z,98045.34
2022-11-12T03:39:13.922Z,98047.16
2022-11-12T03:42:00.529Z,98040.59
2022-11-12T03:44:47.326Z,98042.25
2022-11-12T03:47:35.765Z,98043.41
2022-11-12T03:50:25.619Z,98039.63
2022-11-12T03:53:12.412Z,98039.13
2022-11-12T03:55:58.944Z,98044.06
2022-11-12T03:58:45.679Z,98044.38
2022-11-12T04:01:33.205Z,98033.84
2022-11-12T04:04:21.003Z,98038.63
2022-11-12T04:07:25.201Z,98043.38
2022-11-12T04:10:11.704Z,98040.91
2022-11-12T04:13:16.056Z,98049.47
2022-11-12T04:16:23.025Z,98051.44
2022-11-12T04:19:31.874Z,98051.88
2022-11-12T04:22:19.893Z,98044.50
2022-11-12T04:25:25.007Z,98040.56
2022-11-12T04:28:11.823Z,98033.03
2022-11-12T04:30:57.272Z,98034.81
2022-11-12T04:33:43.911Z,98036.50
2022-11-12T04:36:30.293Z,98043.88
2022-11-12T04:39:18.422Z,98039.78
2022-11-12T04:42:22.979Z,98037.97
2022-11-12T04:45:14.262Z,98029.63
2022-11-12T04:48:00.943Z,98039.13
2022-11-12T04:50:50.865Z,98025.66
2022-11-12T04:53:37.689Z,98032.72
2022-11-12T04:56:25.642Z,98031.41
2022-11-12T04:59:12.091Z,98032.25
2022-11-12T05:01:58.679Z,98037.00
2022-11-12T05:04:45.546Z,98025.97
2022-11-12T05:07:33.598Z,98042.41
2022-11-12T05:10:20.500Z,98037.63
2022-11-12T05:13:08.525Z,98037.47
2022-11-12T05:15:54.887Z,98039.25
2022-11-12T05:18:41.962Z,98036.47
2022-11-12T05:21:46.143Z,98041.09
2022-11-12T05:24:41.947Z,98029.13
2022-11-12T05:27:29.292Z,98038.63
2022-11-12T05:30:17.632Z,98033.22
2022-11-12T05:33:04.442Z,98041.25
2022-11-12T05:35:51.491Z,98034.38
2022-11-12T05:38:39.168Z,98042.09
2022-11-12T05:41:25.927Z,98043.88
2022-11-12T05:44:13.091Z,98041.56
2022-11-12T05:47:01.305Z,98041.56
2022-11-12T05:49:47.922Z,98047.13
2022-11-12T05:52:34.453Z,98043.38
2022-11-12T05:55:21.447Z,98048.63
2022-11-12T05:58:08.442Z,98047.47
2022-11-12T06:00:55.223Z,98040.56
2022-11-12T06:03:43.395Z,98042.19
2022-11-12T06:06:30.033Z,98046.13
2022-11-12T06:09:16.800Z,98053.66
2022-11-12T06:12:06.202Z,98053.81
2022-11-12T06:14:52.785Z,98061.84
2022-11-12T06:17:39.539Z,98075.59
2022-11-12T06:20:27.574Z,98065.13
2022-11-12T06:23:14.490Z,98075.47
2022-11-12T06:26:01.029Z,98081.53
2022-11-12T06:28:49.378Z,98084.59
2022-11-12T06:31:35.889Z,98090.47
2022-11-12T06:34:22.703Z,98087.53
2022-11-12T06:37:10.753Z,98086.09
2022-11-12T06:39:57.432Z,98090.00
2022-11-12T06:42:44.184Z,98080.25
2022-11-12T06:45:30.817Z,98079.97
2022-11-12T06:48:17.757Z,98076.72
2022-11-12T06:51:13.349Z,98077.19
2022-11-12T06:54:01.333Z,98073.75
2022-11-12T06:56:48.163Z,98074.91
2022-11-12T06:59:34.717Z,98076.31
2022-11-12T07:02:21.602Z,98076.16
2022-11-12T07:05:08.919Z,98082.50
2022-11-12T07:07:56.162Z,98074.00
2022-11-12T07:10:44.071Z,98056.13
2022-11-12T07:13:32.600Z,98058.13
2022-11-12T07:16:19.634Z,98056.97
2022-11-12T07:19:06.422Z,98060.75
2022-11-12T07:21:53.124Z,98062.88
2022-11-12T07:24:40.032Z,98058.66
2022-11-12T07:27:30.853Z,98064.09
2022-11-12T07:30:17.789Z,98076.78
2022-11-12T07:33:04.458Z,98073.69
2022-11-12T07:35:57.970Z,98074.69
2022-11-12T07:38:45.429Z,98062.72
2022-11-12T07:41:31.945Z,98064.66
2022-11-12T07:44:19.955Z,98069.41
2022-11-12T07:47:06.674Z,98054.44
2022-11-12T07:49:53.411Z,98057.72
2022-11-12T07:52:40.473Z,98050.31
2022-11-12T07:55:27.511Z,98038.31
2022-11-12T07:58:14.422Z,98049.34
2022-11-12T08:01:10.100Z,98050.81
2022-11-12T08:03:56.611Z,98058.81
2022-11-12T08:06:43.598Z,98058.53
2022-11-12T08:09:30.460Z,98061.44
2022-11-12T08:12:17.306Z,98068.69
2022-11-12T08:15:04.167Z,98069.78
2022-11-12T08:17:54.130Z,98069.59
2022-11-12T08:20:41.161Z,98068.06
2022-11-12T08:23:28.022Z,98058.53
2022-11-12T08:26:17.704Z,98063.31
2022-11-12T08:29:08.704Z,98070.34
2022-11-12T08:31:55.863Z,98068.03
2022-11-12T08:34:43.835Z,98056.50
2022-11-12T08:37:30.791Z,98063.06
2022-11-12T08:40:17.647Z,98056.94
2022-11-12T08:43:07.757Z,98052.63
2022-11-12T08:45:55.079Z,98056.41
2022-11-12T08:48:42.084Z,98057.16
2022-11-12T08:51:29.981Z,98058.78
2022-11-12T08:54:16.561Z,98059.38
2022-11-12T08:57:05.823Z,98054.72
2022-11-12T08:59:52.412Z,98049.72
2022-11-12T09:02:39.014Z,98050.00
2022-11-12T09:05:25.861Z,98053.41
2022-11-12T09:08:17.282Z,98051.00
2022-11-12T09:11:07.023Z,98046.38
2022-11-12T09:13:54.870Z,98044.03
2022-11-12T09:16:41.458Z,98036.22
2022-11-12T09:19:28.298Z,98043.13
2022-11-12T09:22:14.811Z,98044.38
2022-11-12T09:25:03.016Z,98044.28
2022-11-12T09:27:49.710Z,98044.94
2022-11-12T09:30:37.599Z,98034.56
2022-11-12T09:33:27.201Z,98033.94
2022-11-12T09:36:13.925Z,98037.22
2022-11-12T09:39:00.766Z,98032.00
2022-11-12T09:41:48.806Z,98030.88
2022-11-12T09:44:41.262Z,98032.34
2022-11-12T09:47:33.771Z,98027.41
2022-11-12T09:50:25.701Z,98029.66
2022-11-12T09:53:20.292Z,98031.94
2022-11-12T09:56:11.569Z,98036.09
2022-11-12T09:58:59.973Z,98025.63
2022-11-12T10:02:01.507Z,98029.41
2022-11-12T10:04:59.956Z,98025.38
2022-11-12T10:08:06.580Z,98024.28
2022-11-12T10:11:14.633Z,98030.25
2022-11-12T10:14:14.278Z,98027.09
2022-11-12T10:17:09.721Z,98030.00
2022-11-12T10:20:09.941Z,98029.69
2022-11-12T10:23:20.097Z,98017.06
2022-11-12T10:26:14.626Z,98025.88
2022-11-12T10:29:15.430Z,98017.38
2022-11-12T10:32:03.385Z,98010.44
2022-11-12T10:34:49.752Z,98014.50
2022-11-12T10:37:46.803Z,98015.19
2022-11-12T10:40:37.262Z,98009.72
2022-11-12T10:43:25.861Z,98005.25
2022-11-12T10:46:21.331Z,98010.19
2022-11-12T10:49:23.232Z,98014.13
2022-11-12T10:52:23.317Z,98002.56
2022-11-12T10:55:18.817Z,98007.28
2022-11-12T10:58:19.572Z,98004.28
2022-11-12T11:01:17.547Z,98010.06
2022-11-12T11:04:05.201Z,97997.88
2022-11-12T11:07:01.696Z,97995.63
2022-11-12T11:09:54.717Z,97989.72
2022-11-12T11:12:41.192Z,97990.56
2022-11-12T11:15:27.984Z,97986.41
2022-11-12T11:18:16.314Z,97986.41
2022-11-12T11:21:23.667Z,97982.56
2022-11-12T11:24:36.670Z,97982.69
2022-11-12T11:27:33.740Z,97979.31
2022-11-12T11:30:22.399Z,97979.25
2022-11-12T11:33:46.232Z,97969.66
2022-11-12T11:36:47.299Z,97979.06
2022-11-12T11:39:44.764Z,97983.50
2022-11-12T11:43:09.148Z,97986.94
2022-11-12T11:46:08.265Z,97973.31
2022-11-12T11:49:23.003Z,97972.53
2022-11-12T11:52:42.717Z,97968.13
2022-11-12T11:55:45.009Z,97973.78
2022-11-12T11:58:58.543Z,97976.03
2022-11-12T12:02:23.568Z,97970.78
2022-11-12T12:05:30.397Z,97964.28
2022-11-12T12:08:26.589Z,97973.06
2022-11-12T12:11:19.445Z,97961.50
2022-11-12T12:14:25.343Z,97966.50
2022-11-12T12:17:33.271Z,97964.28
2022-11-12T12:20:30.204Z,97961.38
2022-11-12T12:23:27.537Z,97950.91
2022-11-12T12:26:19.325Z,97953.91
2022-11-12T12:29:12.913Z,97955.50
2022-11-12T12:32:11.809Z,97950.47
2022-11-12T12:35:04.841Z,97947.63
2022-11-12T12:38:07.554Z,97947.81
2022-11-12T12:41:01.837Z,97955.47
2022-11-12T12:43:53.743Z,97943.47
2022-11-12T12:46:46.154Z,97945.72
2022-11-12T12:49:37.845Z,97945.34
2022-11-12T12:52:24.573Z,97941.09
2022-11-12T12:55:41.276Z,97932.72
2022-11-12T12:58:31.333Z,97936.94
2022-11-12T13:01:31.932Z,97940.19
2022-11-12T13:04:38.705Z,97935.09
2022-11-12T13:07:42.918Z,97919.44
2022-11-12T13:10:56.111Z,97924.91
2022-11-12T13:13:42.711Z,97917.19
2022-11-12T13:16:57.710Z,97923.44
2022-11-12T13:19:48.582Z,97927.50
2022-11-12T13:22:51.396Z,97915.25
2022-11-12T13:25:39.294Z,97911.41
2022-11-12T13:28:27.881Z,97908.84
2022-11-12T13:31:28.624Z,97895.56
2022-11-12T13:34:26.302Z,97902.69
2022-11-12T13:37:22.135Z,97899.03
2022-11-12T13:40:15.172Z,97895.78
2022-11-12T13:43:12.719Z,97891.91
2022-11-12T13:46:26.089Z,97898.78
2022-11-12T13:49:16.076Z,97907.53
2022-11-12T13:52:02.709Z,97895.28
2022-11-12T13:55:03.274Z,97904.06
2022-11-12T13:57:54.008Z,97907.09
2022-11-12T14:00:41.226Z,97904.06
2022-11-12T14:03:33.654Z,97899.72
2022-11-12T14:06:29.593Z,97905.38
2022-11-12T14:09:59.246Z,97904.91
2022-11-12T14:13:05.191Z,97905.72
2022-11-12T14:16:11.704Z,97900.25
2022-11-12T14:19:53.811Z,97892.69
2022-11-12T14:22:44.537Z,97893.91
2022-11-12T14:25:32.196Z,97890.25
2022-11-12T14:28:29.500Z,97885.38
2022-11-12T14:31:24.188Z,97884.97
2022-11-12T14:34:21.593Z,97884.75
2022-11-12T14:37:33.426Z,97887.22
2022-11-12T14:40:23.272Z,97886.78
2022-11-12T14:43:34.620Z,97882.50
2022-11-12T14:46:28.858Z,97873.13
2022-11-12T14:49:22.490Z,97875.78
2022-11-12T14:52:16.942Z,97886.16
2022-11-12T14:55:11.576Z,97888.44
2022-11-12T14:58:00.400Z,97882.50
2022-11-12T15:00:48.784Z,97879.63
2022-11-12T15:03:35.738Z,97874.88
2022-11-12T15:06:31.067Z,97869.78
2022-11-12T15:09:21.794Z,97873.44
2022-11-12T15:12:14.225Z,97868.56
2022-11-12T15:15:10.896Z,97864.91
2022-11-12T15:18:03.196Z,97857.19
2022-11-12T15:21:09.290Z,97859.00
2022-11-12T15:24:05.951Z,97859.78
2022-11-12T15:26:53.061Z,97858.72
2022-11-12T15:29:39.942Z,97861.91
2022-11-12T15:32:35.639Z,97855.19
2022-11-12T15:35:36.846Z,97846.44
2022-11-12T15:38:31.559Z,97849.47
2022-11-12T15:41:25.981Z,97845.97
2022-11-12T15:44:13.990Z,97843.66
2022-11-12T15:47:01.883Z,97845.00
2022-11-12T15:49:51.715Z,97843.41
2022-11-12T15:52:38.570Z,97841.78
2022-11-12T15:55:25.637Z,97836.06
2022-11-12T15:58:18.545Z,97830.53
2022-11-12T16:01:06.476Z,97828.13
2022-11-12T16:03:53.382Z,97829.75
2022-11-12T16:06:41.403Z,97827.31
2022-11-12T16:09:28.289Z,97819.34
2022-11-12T16:12:16.100Z,97828.72
2022-11-12T16:15:03.069Z,97811.84
2022-11-12T16:17:50.094Z,97825.81
2022-11-12T16:20:37.341Z,97818.09
2022-11-12T16:23:25.553Z,97811.94
2022-11-12T16:26:17.162Z,97828.28
2022-11-12T16:29:04.358Z,97832.91
2022-11-12T16:31:51.222Z,97831.75
2022-11-12T16:34:38.054Z,97823.94
2022-11-12T16:37:24.901Z,97834.16
2022-11-12T16:40:16.853Z,97826.59
2022-11-12T16:43:03.581Z,97824.75
2022-11-12T16:45:50.477Z,97821.75
2022-11-12T16:48:38.094Z,97829.22
2022-11-12T16:51:25.282Z,97825.03
2022-11-12T16:54:11.952Z,97826.47
2022-11-12T16:57:00.106Z,97823.00
2022-11-12T16:59:47.422Z,97807.94
2022-11-12T17:02:38.026Z,97813.03
2022-11-12T17:05:28.846Z,97804.22
2022-11-12T17:08:15.854Z,97826.13
2022-11-12T17:11:09.362Z,97811.59
2022-11-12T17:13:57.701Z,97811.06
2022-11-12T17:16:44.909Z,97808.97
2022-11-12T17:19:31.425Z,97799.34
2022-11-12T17:22:20.003Z,97800.47
2022-11-12T17:25:09.176Z,97803.81
2022-11-12T17:27:56.198Z,97801.81
2022-11-12T17:30:44.466Z,97803.34
2022-11-12T17:33:31.115Z,97807.88
2022-11-12T17:36:20.761Z,97789.72
2022-11-12T17:39:07.341Z,97792.09
2022-11-12T17:41:53.958Z,97791.63
2022-11-12T17:44:41.194Z,97789.38
2022-11-12T17:47:29.205Z,97794.38
2022-11-12T17:50:16.290Z,97791.16
2022-11-12T17:53:02.857Z,97788.88
2022-11-12T17:55:58.843Z,97796.31
2022-11-12T17:58:47.202Z,97798.13
2022-11-12T18:01:35.043Z,97793.41
2022-11-12T18:04:30.626Z,97796.66
2022-11-12T18:07:17.730Z,97789.94
2022-11-12T18:10:05.111Z,97781.72
2022-11-12T18:12:53.064Z,97781.44
2022-11-12T18:15:39.640Z,97783.25
2022-11-12T18:18:26.207Z,97768.50
2022-11-12T18:21:14.673Z,97779.41
2022-11-12T18:24:01.850Z,97780.38
2022-11-12T18:26:48.819Z,97776.13
2022-11-12T18:29:36.480Z,97772.22
2022-11-12T18:32:23.486Z,97772.28
2022-11-12T18:35:30.348Z,97773.28
2022-11-12T18:38:18.783Z,97770.53
2022-11-12T18:41:32.921Z,97770.47
2022-11-12T18:44:24.767Z,97763.50
2022-11-12T18:47:13.007Z,97770.06
2022-11-12T18:50:02.964Z,97765.47
2022-11-12T18:52:53.862Z,97766.91
2022-11-12T18:55:44.909Z,97766.09
2022-11-12T18:58:35.387Z,97767.31
2022-11-12T19:01:24.229Z,97766.38
2022-11-12T19:04:17.727Z,97760.94
2022-11-12T19:07:04.557Z,97765.25
2022-11-12T19:09:51.572Z,97764.81
2022-11-12T19:12:39.403Z,97762.50
2022-11-12T19:15:27.176Z,97766.66
2022-11-12T19:18:14.704Z,97771.00
2022-11-12T19:21:04.136Z,97764.44
2022-11-12T19:23:54.495Z,97766.13
2022-11-12T19:26:41.721Z,97755.78
2022-11-12T19:29:30.755Z,97756.59
2022-11-12T19:32:17.510Z,97760.38
2022-11-12T19:35:04.040Z,97760.88
2022-11-12T19:37:50.698Z,97756.94
2022-11-12T19:40:37.348Z,97752.66
2022-11-12T19:43:24.994Z,97746.59
2022-11-12T19:46:13.402Z,97749.09
2022-11-12T19:49:00.355Z,97752.75
2022-11-12T19:51:47.578Z,97747.19
2022-11-12T19:54:34.537Z,97749.63
2022-11-12T19:57:21.517Z,97746.53
2022-11-12T20:00:10.834Z,97744.88
2022-11-12T20:05:46.959Z,97731.66
2022-11-12T20:08:34.404Z,97731.47
2022-11-12T20:11:21.306Z,97730.84
2022-11-12T20:14:07.963Z,97730.84
2022-11-12T20:16:54.911Z,97727.22
2022-11-12T20:19:42.987Z,97726.91
2022-11-12T20:22:32.446Z,97724.28
2022-11-12T20:25:19.221Z,97721.63
2022-11-12T20:28:14.800Z,97711.38
2022-11-12T20:31:03.602Z,97706.97
2022-11-12T20:33:51.413Z,97709.06
2022-11-12T20:36:39.422Z,97710.22
2022-11-12T20:39:25.940Z,97709.22
2022-11-12T20:42:12.547Z,97707.25
2022-11-12T20:44:59.343Z,97705.75
2022-11-12T20:47:46.051Z,97710.84
2022-11-12T20:50:32.750Z,97705.97
2022-11-12T20:53:20.864Z,97695.13
2022-11-12T20:56:10.460Z,97700.56
2022-11-12T20:58:57.919Z,97698.47
2022-11-12T21:01:44.719Z,97696.63
2022-11-12T21:04:31.745Z,97695.84
2022-11-12T21:07:18.356Z,97686.97
2022-11-12T21:10:09.701Z,97688.59
2022-11-12T21:12:56.300Z,97690.28
2022-11-12T21:15:46.478Z,97691.09
2022-11-12T21:18:35.566Z,97687.66
2022-11-12T21:21:22.430Z,97688.06
2022-11-12T21:24:13.407Z,97690.34
2022-11-12T21:27:01.382Z,97692.47
2022-11-12T21:29:48.022Z,97691.19
2022-11-12T21:32:34.725Z,97683.34
2022-11-12T21:35:21.262Z,97672.69
2022-11-12T21:38:08.030Z,97674.66
2022-11-12T21:41:03.563Z,97673.19
2022-11-12T21:43:51.905Z,97678.97
2022-11-12T21:46:40.381Z,97670.09
2022-11-12T21:49:27.369Z,97673.88
2022-11-12T21:52:14.065Z,97669.09
2022-11-12T21:55:00.954Z,97671.25
2022-11-12T21:57:47.524Z,97668.28
2022-11-12T22:00:43.069Z,97661.41
2022-11-12T22:03:31.534Z,97659.78
2022-11-12T22:06:19.552Z,97658.00
2022-11-12T22:09:06.833Z,97647.81
2022-11-12T22:11:54.064Z,97648.63
2022-11-12T22:14:40.677Z,97639.63
2022-11-12T22:17:28.605Z,97636.34
2022-11-12T22:20:15.561Z,97640.41
2022-11-12T22:23:02.094Z,97634.19
2022-11-12T22:25:50.559Z,97634.88
2022-11-12T22:28:37.341Z,97636.50
2022-11-12T22:31:26.935Z,97634.22
2022-11-12T22:34:15.015Z,97633.88
2022-11-12T22:37:01.702Z,97632.56
2022-11-12T22:39:48.667Z,97627.31
2022-11-12T22:43:10.369Z,97618.44
2022-11-12T22:46:06.923Z,97620.78
2022-11-12T22:48:53.988Z,97623.41
2022-11-12T22:51:42.209Z,97614.56
2022-11-12T22:54:29.131Z,97609.34
2022-11-12T22:57:15.858Z,97605.63
2022-11-12T23:00:09.510Z,97610.88
2022-11-12T23:03:01.741Z,97611.06
2022-11-12T23:05:51.773Z,97602.06
2022-11-12T23:08:39.898Z,97601.38
2022-11-12T23:11:27.268Z,97602.22
2022-11-12T23:14:13.801Z,97599.44
2022-11-12T23:17:00.430Z,97588.97
2022-11-12T23:19:47.012Z,97592.91
2022-11-12T23:22:33.942Z,97591.75
2022-11-12T23:25:21.923Z,97587.66
2022-11-12T23:28:08.972Z,97587.16
2022-11-12T23:30:55.503Z,97585.06
2022-11-12T23:33:46.371Z,97579.47
2022-11-12T23:36:33.250Z,97573.75
2022-11-12T23:39:19.866Z,97574.22
2022-11-12T23:42:07.958Z,97567.06
2022-11-12T23:44:54.514Z,97570.31
2022-11-12T23:47:41.409Z,97567.69
2022-11-12T23:50:27.980Z,97559.81
2022-11-12T23:53:14.931Z,97552.13
2022-11-12T23:56:02.079Z,97551.63
2022-11-12T23:58:50.211Z,97558.50
